sensor_id;sensor_type;location;lat;lon;timestamp;P1;durP1;ratioP1;P2;durP2;ratioP2
65009;SDS011;51556;50.002;22.014;2022-09-23T00:01:04;8.10;;;4.60;;
65009;SDS011;51556;50.002;22.014;2022-09-23T00:03:35;7.90;;;4.10;;
65009;SDS011;51556;50.002;22.014;2022-09-23T00:06:04;7.40;;;4.50;;
65009;SDS011;51556;50.002;22.014;2022-09-23T00:08:31;6.80;;;4.70;;
65009;SDS011;51556;50.002;22.014;2022-09-23T00:11:08;11.50;;;4.60;;
65009;SDS011;51556;50.002;22.014;2022-09-23T00:13:36;9.00;;;4.00;;
65009;SDS011;51556;50.002;22.014;2022-09-23T00:16:04;6.60;;;3.80;;
65009;SDS011;51556;50.002;22.014;2022-09-23T00:18:31;5.20;;;4.20;;
65009;SDS011;51556;50.002;22.014;2022-09-23T00:20:57;6.20;;;4.20;;
65009;SDS011;51556;50.002;22.014;2022-09-23T00:23:27;5.70;;;4.00;;
65009;SDS011;51556;50.002;22.014;2022-09-23T00:25:59;6.10;;;4.20;;
65009;SDS011;51556;50.002;22.014;2022-09-23T00:28:26;7.90;;;4.50;;
65009;SDS011;51556;50.002;22.014;2022-09-23T00:30:53;7.10;;;4.40;;
65009;SDS011;51556;50.002;22.014;2022-09-23T00:33:18;9.10;;;4.40;;
65009;SDS011;51556;50.002;22.014;2022-09-23T00:35:44;14.00;;;4.80;;
65009;SDS011;51556;50.002;22.014;2022-09-23T00:38:09;8.00;;;5.00;;
65009;SDS011;51556;50.002;22.014;2022-09-23T00:40:40;7.10;;;5.20;;
65009;SDS011;51556;50.002;22.014;2022-09-23T00:43:13;7.90;;;5.30;;
65009;SDS011;51556;50.002;22.014;2022-09-23T00:45:42;6.30;;;4.80;;
65009;SDS011;51556;50.002;22.014;2022-09-23T00:48:16;8.40;;;5.40;;
65009;SDS011;51556;50.002;22.014;2022-09-23T00:50:47;7.10;;;5.00;;
65009;SDS011;51556;50.002;22.014;2022-09-23T00:53:17;9.10;;;5.00;;
65009;SDS011;51556;50.002;22.014;2022-09-23T00:55:51;8.70;;;5.00;;
65009;SDS011;51556;50.002;22.014;2022-09-23T00:58:24;7.10;;;5.10;;
65009;SDS011;51556;50.002;22.014;2022-09-23T01:00:52;9.00;;;5.20;;
65009;SDS011;51556;50.002;22.014;2022-09-23T01:03:18;7.20;;;5.30;;
65009;SDS011;51556;50.002;22.014;2022-09-23T01:05:44;7.70;;;5.20;;
65009;SDS011;51556;50.002;22.014;2022-09-23T01:08:10;7.80;;;5.50;;
65009;SDS011;51556;50.002;22.014;2022-09-23T01:13:26;7.80;;;5.00;;
65009;SDS011;51556;50.002;22.014;2022-09-23T01:16:17;8.10;;;5.20;;
65009;SDS011;51556;50.002;22.014;2022-09-23T01:18:58;6.80;;;4.60;;
65009;SDS011;51556;50.002;22.014;2022-09-23T01:24:47;7.90;;;4.80;;
65009;SDS011;51556;50.002;22.014;2022-09-23T01:33:09;8.50;;;5.20;;
65009;SDS011;51556;50.002;22.014;2022-09-23T01:41:53;8.40;;;5.00;;
65009;SDS011;51556;50.002;22.014;2022-09-23T01:47:20;10.10;;;5.80;;
65009;SDS011;51556;50.002;22.014;2022-09-23T01:50:37;8.00;;;5.10;;
65009;SDS011;51556;50.002;22.014;2022-09-23T01:53:03;7.90;;;4.90;;
65009;SDS011;51556;50.002;22.014;2022-09-23T01:55:36;8.00;;;5.70;;
65009;SDS011;51556;50.002;22.014;2022-09-23T01:58:11;8.60;;;5.10;;
65009;SDS011;51556;50.002;22.014;2022-09-23T02:03:37;8.10;;;4.70;;
65009;SDS011;51556;50.002;22.014;2022-09-23T02:06:14;10.00;;;5.70;;
65009;SDS011;51556;50.002;22.014;2022-09-23T02:08:57;14.40;;;5.70;;
65009;SDS011;51556;50.002;22.014;2022-09-23T02:11:26;7.80;;;5.00;;
65009;SDS011;51556;50.002;22.014;2022-09-23T02:13:57;8.30;;;5.20;;
65009;SDS011;51556;50.002;22.014;2022-09-23T02:16:29;7.10;;;4.90;;
65009;SDS011;51556;50.002;22.014;2022-09-23T02:18:57;7.50;;;5.30;;
65009;SDS011;51556;50.002;22.014;2022-09-23T02:21:25;7.70;;;5.00;;
65009;SDS011;51556;50.002;22.014;2022-09-23T02:24:03;7.00;;;5.10;;
65009;SDS011;51556;50.002;22.014;2022-09-23T02:29:56;8.70;;;5.50;;
65009;SDS011;51556;50.002;22.014;2022-09-23T02:33:19;7.90;;;4.80;;
65009;SDS011;51556;50.002;22.014;2022-09-23T02:35:37;7.00;;;5.40;;
65009;SDS011;51556;50.002;22.014;2022-09-23T02:46:11;7.20;;;4.80;;
65009;SDS011;51556;50.002;22.014;2022-09-23T02:48:38;11.60;;;4.90;;
65009;SDS011;51556;50.002;22.014;2022-09-23T02:51:07;9.20;;;5.50;;
65009;SDS011;51556;50.002;22.014;2022-09-23T02:53:34;8.60;;;5.10;;
65009;SDS011;51556;50.002;22.014;2022-09-23T02:56:01;6.90;;;4.70;;
65009;SDS011;51556;50.002;22.014;2022-09-23T02:58:36;7.70;;;5.40;;
65009;SDS011;51556;50.002;22.014;2022-09-23T03:06:39;8.10;;;4.80;;
65009;SDS011;51556;50.002;22.014;2022-09-23T03:09:24;9.50;;;5.00;;
65009;SDS011;51556;50.002;22.014;2022-09-23T03:12:09;8.10;;;4.80;;
65009;SDS011;51556;50.002;22.014;2022-09-23T03:20:13;8.90;;;5.20;;
65009;SDS011;51556;50.002;22.014;2022-09-23T03:22:46;9.20;;;5.30;;
65009;SDS011;51556;50.002;22.014;2022-09-23T03:25:18;7.70;;;5.20;;
65009;SDS011;51556;50.002;22.014;2022-09-23T03:27:47;9.90;;;5.60;;
65009;SDS011;51556;50.002;22.014;2022-09-23T03:30:14;8.20;;;5.20;;
65009;SDS011;51556;50.002;22.014;2022-09-23T03:32:41;8.70;;;5.20;;
65009;SDS011;51556;50.002;22.014;2022-09-23T03:35:10;9.10;;;5.70;;
65009;SDS011;51556;50.002;22.014;2022-09-23T03:37:45;12.20;;;5.70;;
65009;SDS011;51556;50.002;22.014;2022-09-23T03:40:22;9.20;;;6.20;;
65009;SDS011;51556;50.002;22.014;2022-09-23T03:42:53;8.00;;;5.30;;
65009;SDS011;51556;50.002;22.014;2022-09-23T03:45:22;8.30;;;5.80;;
65009;SDS011;51556;50.002;22.014;2022-09-23T03:47:51;9.10;;;5.50;;
65009;SDS011;51556;50.002;22.014;2022-09-23T03:50:17;13.90;;;6.40;;
65009;SDS011;51556;50.002;22.014;2022-09-23T03:52:42;9.10;;;7.00;;
65009;SDS011;51556;50.002;22.014;2022-09-23T03:55:09;8.60;;;5.40;;
65009;SDS011;51556;50.002;22.014;2022-09-23T03:57:35;9.60;;;6.20;;
65009;SDS011;51556;50.002;22.014;2022-09-23T04:00:03;9.80;;;6.10;;
65009;SDS011;51556;50.002;22.014;2022-09-23T04:02:30;8.40;;;5.50;;
65009;SDS011;51556;50.002;22.014;2022-09-23T04:04:56;8.40;;;5.70;;
65009;SDS011;51556;50.002;22.014;2022-09-23T04:07:21;10.50;;;6.20;;
65009;SDS011;51556;50.002;22.014;2022-09-23T04:09:47;10.20;;;5.80;;
65009;SDS011;51556;50.002;22.014;2022-09-23T04:12:13;7.90;;;5.50;;
65009;SDS011;51556;50.002;22.014;2022-09-23T04:14:40;7.40;;;5.60;;
65009;SDS011;51556;50.002;22.014;2022-09-23T04:17:06;9.30;;;5.80;;
65009;SDS011;51556;50.002;22.014;2022-09-23T04:19:32;9.30;;;5.50;;
65009;SDS011;51556;50.002;22.014;2022-09-23T04:21:57;10.40;;;6.00;;
65009;SDS011;51556;50.002;22.014;2022-09-23T04:24:23;8.20;;;5.80;;
65009;SDS011;51556;50.002;22.014;2022-09-23T04:26:49;8.80;;;6.20;;
65009;SDS011;51556;50.002;22.014;2022-09-23T04:29:17;11.50;;;5.70;;
65009;SDS011;51556;50.002;22.014;2022-09-23T04:31:43;9.10;;;6.20;;
65009;SDS011;51556;50.002;22.014;2022-09-23T04:34:08;8.90;;;6.10;;
65009;SDS011;51556;50.002;22.014;2022-09-23T04:36:34;10.30;;;6.60;;
65009;SDS011;51556;50.002;22.014;2022-09-23T04:39:00;9.30;;;6.50;;
65009;SDS011;51556;50.002;22.014;2022-09-23T04:41:26;10.00;;;6.50;;
65009;SDS011;51556;50.002;22.014;2022-09-23T04:43:51;11.60;;;7.60;;
65009;SDS011;51556;50.002;22.014;2022-09-23T04:46:17;10.90;;;7.70;;
65009;SDS011;51556;50.002;22.014;2022-09-23T04:48:43;10.60;;;7.30;;
65009;SDS011;51556;50.002;22.014;2022-09-23T04:51:10;11.80;;;7.10;;
65009;SDS011;51556;50.002;22.014;2022-09-23T04:53:39;11.10;;;6.90;;
65009;SDS011;51556;50.002;22.014;2022-09-23T04:56:07;10.30;;;7.30;;
65009;SDS011;51556;50.002;22.014;2022-09-23T04:58:38;10.70;;;7.80;;
65009;SDS011;51556;50.002;22.014;2022-09-23T05:01:12;13.30;;;9.90;;
65009;SDS011;51556;50.002;22.014;2022-09-23T05:03:39;14.10;;;9.50;;
65009;SDS011;51556;50.002;22.014;2022-09-23T05:08:52;13.30;;;9.10;;
65009;SDS011;51556;50.002;22.014;2022-09-23T05:11:19;12.90;;;9.40;;
65009;SDS011;51556;50.002;22.014;2022-09-23T05:13:46;13.80;;;10.40;;
65009;SDS011;51556;50.002;22.014;2022-09-23T05:16:15;14.30;;;10.20;;
65009;SDS011;51556;50.002;22.014;2022-09-23T05:18:42;14.30;;;10.30;;
65009;SDS011;51556;50.002;22.014;2022-09-23T05:21:09;14.80;;;10.40;;
65009;SDS011;51556;50.002;22.014;2022-09-23T05:23:36;13.50;;;8.20;;
65009;SDS011;51556;50.002;22.014;2022-09-23T05:26:04;13.30;;;9.20;;
65009;SDS011;51556;50.002;22.014;2022-09-23T05:28:32;15.30;;;9.70;;
65009;SDS011;51556;50.002;22.014;2022-09-23T05:33:30;15.40;;;10.00;;
65009;SDS011;51556;50.002;22.014;2022-09-23T05:35:57;15.90;;;10.30;;
65009;SDS011;51556;50.002;22.014;2022-09-23T05:38:23;19.10;;;9.50;;
65009;SDS011;51556;50.002;22.014;2022-09-23T05:41:02;12.70;;;9.00;;
65009;SDS011;51556;50.002;22.014;2022-09-23T05:43:30;15.20;;;9.90;;
65009;SDS011;51556;50.002;22.014;2022-09-23T05:46:03;13.30;;;9.60;;
65009;SDS011;51556;50.002;22.014;2022-09-23T05:48:34;14.10;;;8.40;;
65009;SDS011;51556;50.002;22.014;2022-09-23T05:51:01;13.10;;;8.50;;
65009;SDS011;51556;50.002;22.014;2022-09-23T05:53:27;10.60;;;8.00;;
65009;SDS011;51556;50.002;22.014;2022-09-23T05:55:55;12.70;;;8.60;;
65009;SDS011;51556;50.002;22.014;2022-09-23T05:58:21;12.40;;;8.60;;
65009;SDS011;51556;50.002;22.014;2022-09-23T06:00:51;12.40;;;8.60;;
65009;SDS011;51556;50.002;22.014;2022-09-23T06:03:21;10.40;;;8.30;;
65009;SDS011;51556;50.002;22.014;2022-09-23T06:05:47;12.00;;;8.60;;
65009;SDS011;51556;50.002;22.014;2022-09-23T06:08:17;13.50;;;8.10;;
65009;SDS011;51556;50.002;22.014;2022-09-23T06:10:43;12.10;;;8.60;;
65009;SDS011;51556;50.002;22.014;2022-09-23T06:13:10;15.40;;;7.80;;
65009;SDS011;51556;50.002;22.014;2022-09-23T06:15:37;11.20;;;7.80;;
65009;SDS011;51556;50.002;22.014;2022-09-23T06:18:03;11.80;;;7.80;;
65009;SDS011;51556;50.002;22.014;2022-09-23T06:20:29;11.90;;;7.40;;
65009;SDS011;51556;50.002;22.014;2022-09-23T06:23:05;11.70;;;7.70;;
65009;SDS011;51556;50.002;22.014;2022-09-23T06:25:34;11.10;;;7.70;;
65009;SDS011;51556;50.002;22.014;2022-09-23T06:28:02;11.90;;;8.30;;
65009;SDS011;51556;50.002;22.014;2022-09-23T06:30:28;10.10;;;8.10;;
65009;SDS011;51556;50.002;22.014;2022-09-23T06:32:54;13.80;;;8.30;;
65009;SDS011;51556;50.002;22.014;2022-09-23T06:35:25;11.80;;;7.10;;
65009;SDS011;51556;50.002;22.014;2022-09-23T06:37:51;9.00;;;6.60;;
65009;SDS011;51556;50.002;22.014;2022-09-23T06:40:17;10.50;;;7.10;;
65009;SDS011;51556;50.002;22.014;2022-09-23T06:42:43;12.70;;;8.20;;
65009;SDS011;51556;50.002;22.014;2022-09-23T06:45:12;13.80;;;8.50;;
65009;SDS011;51556;50.002;22.014;2022-09-23T06:47:39;12.00;;;8.00;;
65009;SDS011;51556;50.002;22.014;2022-09-23T06:50:11;12.90;;;8.80;;
65009;SDS011;51556;50.002;22.014;2022-09-23T06:52:37;12.30;;;8.30;;
65009;SDS011;51556;50.002;22.014;2022-09-23T06:55:03;12.30;;;7.30;;
65009;SDS011;51556;50.002;22.014;2022-09-23T06:57:29;11.50;;;8.60;;
65009;SDS011;51556;50.002;22.014;2022-09-23T06:59:57;12.80;;;8.50;;
65009;SDS011;51556;50.002;22.014;2022-09-23T07:02:23;13.90;;;8.40;;
65009;SDS011;51556;50.002;22.014;2022-09-23T07:04:50;11.60;;;9.00;;
65009;SDS011;51556;50.002;22.014;2022-09-23T07:07:16;15.10;;;8.40;;
65009;SDS011;51556;50.002;22.014;2022-09-23T07:09:43;13.70;;;8.50;;
65009;SDS011;51556;50.002;22.014;2022-09-23T07:12:12;12.30;;;8.70;;
65009;SDS011;51556;50.002;22.014;2022-09-23T07:14:38;17.30;;;11.50;;
65009;SDS011;51556;50.002;22.014;2022-09-23T07:17:04;21.50;;;12.40;;
65009;SDS011;51556;50.002;22.014;2022-09-23T07:19:29;19.00;;;11.10;;
65009;SDS011;51556;50.002;22.014;2022-09-23T07:21:54;18.20;;;12.80;;
65009;SDS011;51556;50.002;22.014;2022-09-23T07:24:21;23.20;;;17.10;;
65009;SDS011;51556;50.002;22.014;2022-09-23T07:26:47;15.60;;;9.70;;
65009;SDS011;51556;50.002;22.014;2022-09-23T07:29:13;17.50;;;13.50;;
65009;SDS011;51556;50.002;22.014;2022-09-23T07:31:39;20.50;;;11.60;;
65009;SDS011;51556;50.002;22.014;2022-09-23T07:34:05;14.30;;;10.40;;
65009;SDS011;51556;50.002;22.014;2022-09-23T07:36:32;18.90;;;11.00;;
65009;SDS011;51556;50.002;22.014;2022-09-23T07:39:04;13.50;;;10.70;;
65009;SDS011;51556;50.002;22.014;2022-09-23T07:41:33;16.50;;;11.70;;
65009;SDS011;51556;50.002;22.014;2022-09-23T07:43:58;16.40;;;10.70;;
65009;SDS011;51556;50.002;22.014;2022-09-23T07:46:25;14.60;;;10.40;;
65009;SDS011;51556;50.002;22.014;2022-09-23T07:48:53;17.10;;;11.30;;
65009;SDS011;51556;50.002;22.014;2022-09-23T07:51:27;12.00;;;7.90;;
65009;SDS011;51556;50.002;22.014;2022-09-23T07:53:54;27.40;;;12.70;;
65009;SDS011;51556;50.002;22.014;2022-09-23T07:56:23;21.30;;;11.10;;
65009;SDS011;51556;50.002;22.014;2022-09-23T07:58:50;14.60;;;9.50;;
65009;SDS011;51556;50.002;22.014;2022-09-23T08:01:30;14.10;;;9.90;;
65009;SDS011;51556;50.002;22.014;2022-09-23T08:04:04;12.70;;;9.20;;
65009;SDS011;51556;50.002;22.014;2022-09-23T08:06:51;13.80;;;9.70;;
65009;SDS011;51556;50.002;22.014;2022-09-23T08:09:24;12.20;;;9.40;;
65009;SDS011;51556;50.002;22.014;2022-09-23T08:11:52;18.00;;;10.50;;
65009;SDS011;51556;50.002;22.014;2022-09-23T08:14:18;14.10;;;10.70;;
65009;SDS011;51556;50.002;22.014;2022-09-23T08:16:46;14.70;;;9.60;;
65009;SDS011;51556;50.002;22.014;2022-09-23T08:19:12;13.10;;;9.40;;
65009;SDS011;51556;50.002;22.014;2022-09-23T08:21:39;12.50;;;9.40;;
65009;SDS011;51556;50.002;22.014;2022-09-23T08:24:10;13.60;;;9.40;;
65009;SDS011;51556;50.002;22.014;2022-09-23T08:26:39;13.90;;;8.70;;
65009;SDS011;51556;50.002;22.014;2022-09-23T08:29:07;15.10;;;7.80;;
65009;SDS011;51556;50.002;22.014;2022-09-23T08:31:36;11.40;;;8.00;;
65009;SDS011;51556;50.002;22.014;2022-09-23T08:34:01;15.40;;;8.40;;
65009;SDS011;51556;50.002;22.014;2022-09-23T08:36:27;16.30;;;8.20;;
65009;SDS011;51556;50.002;22.014;2022-09-23T08:38:52;13.70;;;7.50;;
65009;SDS011;51556;50.002;22.014;2022-09-23T08:44:16;10.30;;;6.80;;
65009;SDS011;51556;50.002;22.014;2022-09-23T08:50:02;9.00;;;5.50;;
65009;SDS011;51556;50.002;22.014;2022-09-23T08:52:49;11.00;;;5.50;;
65009;SDS011;51556;50.002;22.014;2022-09-23T08:55:22;10.90;;;5.00;;
65009;SDS011;51556;50.002;22.014;2022-09-23T09:00:42;10.90;;;5.30;;
65009;SDS011;51556;50.002;22.014;2022-09-23T09:03:18;5.90;;;4.90;;
65009;SDS011;51556;50.002;22.014;2022-09-23T09:05:49;6.90;;;5.30;;
65009;SDS011;51556;50.002;22.014;2022-09-23T09:08:19;7.80;;;5.20;;
65009;SDS011;51556;50.002;22.014;2022-09-23T09:10:49;7.40;;;4.60;;
65009;SDS011;51556;50.002;22.014;2022-09-23T09:13:21;5.60;;;4.40;;
65009;SDS011;51556;50.002;22.014;2022-09-23T09:16:04;6.30;;;4.40;;
65009;SDS011;51556;50.002;22.014;2022-09-23T09:18:52;7.70;;;4.50;;
65009;SDS011;51556;50.002;22.014;2022-09-23T09:21:33;6.30;;;4.00;;
65009;SDS011;51556;50.002;22.014;2022-09-23T09:24:08;7.30;;;4.20;;
65009;SDS011;51556;50.002;22.014;2022-09-23T09:27:08;5.40;;;4.30;;
65009;SDS011;51556;50.002;22.014;2022-09-23T09:29:36;4.70;;;3.60;;
65009;SDS011;51556;50.002;22.014;2022-09-23T09:32:14;4.90;;;3.60;;
65009;SDS011;51556;50.002;22.014;2022-09-23T09:34:48;5.50;;;3.60;;
65009;SDS011;51556;50.002;22.014;2022-09-23T09:37:30;4.60;;;3.20;;
65009;SDS011;51556;50.002;22.014;2022-09-23T09:40:00;7.60;;;3.60;;
65009;SDS011;51556;50.002;22.014;2022-09-23T09:42:32;5.30;;;3.30;;
65009;SDS011;51556;50.002;22.014;2022-09-23T09:47:58;7.70;;;3.90;;
65009;SDS011;51556;50.002;22.014;2022-09-23T09:56:00;4.40;;;2.80;;
65009;SDS011;51556;50.002;22.014;2022-09-23T09:58:54;4.60;;;3.40;;
65009;SDS011;51556;50.002;22.014;2022-09-23T10:01:30;3.60;;;3.10;;
65009;SDS011;51556;50.002;22.014;2022-09-23T10:03:58;4.30;;;2.50;;
65009;SDS011;51556;50.002;22.014;2022-09-23T10:06:27;4.40;;;2.80;;
65009;SDS011;51556;50.002;22.014;2022-09-23T10:09:12;3.20;;;2.50;;
65009;SDS011;51556;50.002;22.014;2022-09-23T10:12:00;3.10;;;2.50;;
65009;SDS011;51556;50.002;22.014;2022-09-23T10:14:47;3.30;;;2.70;;
65009;SDS011;51556;50.002;22.014;2022-09-23T10:17:19;4.50;;;2.40;;
65009;SDS011;51556;50.002;22.014;2022-09-23T10:19:57;5.10;;;2.70;;
65009;SDS011;51556;50.002;22.014;2022-09-23T10:22:26;3.50;;;2.40;;
65009;SDS011;51556;50.002;22.014;2022-09-23T10:27:27;3.50;;;2.40;;
65009;SDS011;51556;50.002;22.014;2022-09-23T10:30:04;4.10;;;2.70;;
65009;SDS011;51556;50.002;22.014;2022-09-23T10:32:45;3.20;;;2.10;;
65009;SDS011;51556;50.002;22.014;2022-09-23T10:35:15;4.20;;;2.50;;
65009;SDS011;51556;50.002;22.014;2022-09-23T10:37:46;3.90;;;2.40;;
65009;SDS011;51556;50.002;22.014;2022-09-23T10:40:17;2.30;;;2.10;;
65009;SDS011;51556;50.002;22.014;2022-09-23T10:43:49;2.30;;;1.80;;
65009;SDS011;51556;50.002;22.014;2022-09-23T10:46:35;3.10;;;2.20;;
65009;SDS011;51556;50.002;22.014;2022-09-23T10:57:00;3.00;;;2.20;;
65009;SDS011;51556;50.002;22.014;2022-09-23T11:08:06;3.40;;;1.90;;
65009;SDS011;51556;50.002;22.014;2022-09-23T11:16:26;1.70;;;1.00;;
65009;SDS011;51556;50.002;22.014;2022-09-23T11:22:13;1.50;;;0.90;;
65009;SDS011;51556;50.002;22.014;2022-09-23T11:30:55;1.90;;;1.30;;
65009;SDS011;51556;50.002;22.014;2022-09-23T11:36:11;1.90;;;1.50;;
65009;SDS011;51556;50.002;22.014;2022-09-23T11:38:50;2.10;;;1.10;;
65009;SDS011;51556;50.002;22.014;2022-09-23T11:41:22;5.30;;;2.00;;
65009;SDS011;51556;50.002;22.014;2022-09-23T11:44:14;2.20;;;1.10;;
65009;SDS011;51556;50.002;22.014;2022-09-23T11:46:45;2.20;;;1.00;;
65009;SDS011;51556;50.002;22.014;2022-09-23T11:55:23;1.40;;;0.80;;
65009;SDS011;51556;50.002;22.014;2022-09-23T12:01:06;0.80;;;0.70;;
65009;SDS011;51556;50.002;22.014;2022-09-23T12:03:57;0.90;;;0.60;;
65009;SDS011;51556;50.002;22.014;2022-09-23T12:06:47;1.70;;;0.60;;
65009;SDS011;51556;50.002;22.014;2022-09-23T12:09:29;0.60;;;0.60;;
65009;SDS011;51556;50.002;22.014;2022-09-23T12:12:05;2.40;;;0.80;;
65009;SDS011;51556;50.002;22.014;2022-09-23T12:14:56;2.00;;;0.80;;
65009;SDS011;51556;50.002;22.014;2022-09-23T12:22:42;1.30;;;0.90;;
65009;SDS011;51556;50.002;22.014;2022-09-23T12:28:12;1.20;;;0.90;;
65009;SDS011;51556;50.002;22.014;2022-09-23T12:30:55;2.60;;;0.80;;
65009;SDS011;51556;50.002;22.014;2022-09-23T12:33:25;2.30;;;1.10;;
65009;SDS011;51556;50.002;22.014;2022-09-23T12:35:55;2.20;;;1.00;;
65009;SDS011;51556;50.002;22.014;2022-09-23T12:38:35;1.70;;;1.00;;
65009;SDS011;51556;50.002;22.014;2022-09-23T12:41:29;2.30;;;1.20;;
65009;SDS011;51556;50.002;22.014;2022-09-23T12:50:21;3.00;;;1.40;;
65009;SDS011;51556;50.002;22.014;2022-09-23T12:56:13;5.10;;;2.70;;
65009;SDS011;51556;50.002;22.014;2022-09-23T13:03:44;2.30;;;1.80;;
65009;SDS011;51556;50.002;22.014;2022-09-23T13:09:29;2.30;;;1.70;;
65009;SDS011;51556;50.002;22.014;2022-09-23T13:12:52;2.20;;;1.80;;
65009;SDS011;51556;50.002;22.014;2022-09-23T13:15:34;7.10;;;1.90;;
65009;SDS011;51556;50.002;22.014;2022-09-23T13:20:44;2.30;;;1.80;;
65009;SDS011;51556;50.002;22.014;2022-09-23T13:23:22;6.00;;;1.70;;
65009;SDS011;51556;50.002;22.014;2022-09-23T13:25:54;4.10;;;2.10;;
65009;SDS011;51556;50.002;22.014;2022-09-23T13:28:28;4.70;;;3.00;;
65009;SDS011;51556;50.002;22.014;2022-09-23T13:31:16;2.60;;;1.80;;
65009;SDS011;51556;50.002;22.014;2022-09-23T13:33:46;2.50;;;1.70;;
65009;SDS011;51556;50.002;22.014;2022-09-23T13:36:16;3.90;;;1.90;;
65009;SDS011;51556;50.002;22.014;2022-09-23T13:38:43;2.50;;;1.50;;
65009;SDS011;51556;50.002;22.014;2022-09-23T13:41:14;3.00;;;1.70;;
65009;SDS011;51556;50.002;22.014;2022-09-23T13:43:53;2.60;;;1.60;;
65009;SDS011;51556;50.002;22.014;2022-09-23T13:46:28;1.80;;;1.30;;
65009;SDS011;51556;50.002;22.014;2022-09-23T13:48:59;2.50;;;1.40;;
65009;SDS011;51556;50.002;22.014;2022-09-23T13:51:26;2.00;;;1.40;;
65009;SDS011;51556;50.002;22.014;2022-09-23T13:53:55;3.40;;;1.70;;
65009;SDS011;51556;50.002;22.014;2022-09-23T13:56:27;4.40;;;1.70;;
65009;SDS011;51556;50.002;22.014;2022-09-23T13:59:10;2.30;;;1.40;;
65009;SDS011;51556;50.002;22.014;2022-09-23T14:02:05;1.50;;;1.00;;
65009;SDS011;51556;50.002;22.014;2022-09-23T14:04:39;1.50;;;1.20;;
65009;SDS011;51556;50.002;22.014;2022-09-23T14:07:06;3.50;;;1.50;;
65009;SDS011;51556;50.002;22.014;2022-09-23T14:09:35;1.80;;;1.20;;
65009;SDS011;51556;50.002;22.014;2022-09-23T14:12:03;2.50;;;1.00;;
65009;SDS011;51556;50.002;22.014;2022-09-23T14:14:33;2.10;;;1.30;;
65009;SDS011;51556;50.002;22.014;2022-09-23T14:17:01;2.20;;;1.10;;
65009;SDS011;51556;50.002;22.014;2022-09-23T14:19:28;3.70;;;1.50;;
65009;SDS011;51556;50.002;22.014;2022-09-23T14:21:54;1.70;;;1.50;;
65009;SDS011;51556;50.002;22.014;2022-09-23T14:24:21;2.80;;;1.50;;
65009;SDS011;51556;50.002;22.014;2022-09-23T14:26:53;1.60;;;1.30;;
65009;SDS011;51556;50.002;22.014;2022-09-23T14:29:35;2.80;;;1.50;;
65009;SDS011;51556;50.002;22.014;2022-09-23T14:32:04;2.10;;;1.50;;
65009;SDS011;51556;50.002;22.014;2022-09-23T14:37:18;2.20;;;1.40;;
65009;SDS011;51556;50.002;22.014;2022-09-23T14:43:05;1.80;;;1.50;;
65009;SDS011;51556;50.002;22.014;2022-09-23T14:45:42;1.90;;;1.20;;
65009;SDS011;51556;50.002;22.014;2022-09-23T14:51:00;1.70;;;1.50;;
65009;SDS011;51556;50.002;22.014;2022-09-23T14:58:38;6.50;;;3.70;;
65009;SDS011;51556;50.002;22.014;2022-09-23T15:06:34;4.90;;;1.80;;
65009;SDS011;51556;50.002;22.014;2022-09-23T15:09:04;2.50;;;1.60;;
65009;SDS011;51556;50.002;22.014;2022-09-23T15:11:33;4.20;;;1.80;;
65009;SDS011;51556;50.002;22.014;2022-09-23T15:14:00;2.50;;;1.90;;
65009;SDS011;51556;50.002;22.014;2022-09-23T15:16:29;4.00;;;1.90;;
65009;SDS011;51556;50.002;22.014;2022-09-23T15:18:58;3.60;;;2.40;;
65009;SDS011;51556;50.002;22.014;2022-09-23T15:21:31;4.60;;;2.90;;
65009;SDS011;51556;50.002;22.014;2022-09-23T15:24:04;4.90;;;2.30;;
65009;SDS011;51556;50.002;22.014;2022-09-23T15:26:46;4.90;;;2.60;;
65009;SDS011;51556;50.002;22.014;2022-09-23T15:29:16;3.90;;;2.60;;
65009;SDS011;51556;50.002;22.014;2022-09-23T15:31:42;5.20;;;2.40;;
65009;SDS011;51556;50.002;22.014;2022-09-23T15:34:08;4.10;;;2.60;;
65009;SDS011;51556;50.002;22.014;2022-09-23T15:36:35;5.60;;;3.50;;
65009;SDS011;51556;50.002;22.014;2022-09-23T15:39:03;6.00;;;3.80;;
65009;SDS011;51556;50.002;22.014;2022-09-23T15:41:31;16.50;;;11.70;;
65009;SDS011;51556;50.002;22.014;2022-09-23T15:43:58;22.80;;;11.80;;
65009;SDS011;51556;50.002;22.014;2022-09-23T15:46:53;11.60;;;4.70;;
65009;SDS011;51556;50.002;22.014;2022-09-23T15:49:36;4.50;;;2.90;;
65009;SDS011;51556;50.002;22.014;2022-09-23T15:52:05;5.00;;;2.40;;
65009;SDS011;51556;50.002;22.014;2022-09-23T15:54:33;4.00;;;2.50;;
65009;SDS011;51556;50.002;22.014;2022-09-23T15:56:59;7.20;;;3.20;;
65009;SDS011;51556;50.002;22.014;2022-09-23T15:59:25;5.80;;;3.50;;
65009;SDS011;51556;50.002;22.014;2022-09-23T16:01:51;6.70;;;3.90;;
65009;SDS011;51556;50.002;22.014;2022-09-23T16:04:19;10.30;;;6.10;;
65009;SDS011;51556;50.002;22.014;2022-09-23T16:06:45;10.40;;;7.00;;
65009;SDS011;51556;50.002;22.014;2022-09-23T16:09:13;12.50;;;8.30;;
65009;SDS011;51556;50.002;22.014;2022-09-23T16:11:42;11.70;;;8.50;;
65009;SDS011;51556;50.002;22.014;2022-09-23T16:16:38;17.80;;;9.30;;
65009;SDS011;51556;50.002;22.014;2022-09-23T16:19:03;14.20;;;8.70;;
65009;SDS011;51556;50.002;22.014;2022-09-23T16:21:29;17.30;;;8.50;;
65009;SDS011;51556;50.002;22.014;2022-09-23T16:23:54;15.70;;;8.50;;
65009;SDS011;51556;50.002;22.014;2022-09-23T16:26:31;17.40;;;9.30;;
65009;SDS011;51556;50.002;22.014;2022-09-23T16:28:58;16.20;;;9.40;;
65009;SDS011;51556;50.002;22.014;2022-09-23T16:31:25;19.70;;;9.60;;
65009;SDS011;51556;50.002;22.014;2022-09-23T16:33:55;17.70;;;7.70;;
65009;SDS011;51556;50.002;22.014;2022-09-23T16:36:25;14.00;;;7.60;;
65009;SDS011;51556;50.002;22.014;2022-09-23T16:38:55;19.50;;;10.40;;
65009;SDS011;51556;50.002;22.014;2022-09-23T16:41:22;22.00;;;11.10;;
65009;SDS011;51556;50.002;22.014;2022-09-23T16:43:54;27.60;;;12.80;;
65009;SDS011;51556;50.002;22.014;2022-09-23T16:46:28;23.00;;;12.00;;
65009;SDS011;51556;50.002;22.014;2022-09-23T16:48:57;21.70;;;11.60;;
65009;SDS011;51556;50.002;22.014;2022-09-23T16:51:30;36.20;;;17.20;;
65009;SDS011;51556;50.002;22.014;2022-09-23T16:54:03;55.20;;;23.70;;
65009;SDS011;51556;50.002;22.014;2022-09-23T16:56:34;34.90;;;16.50;;
65009;SDS011;51556;50.002;22.014;2022-09-23T16:59:01;28.60;;;14.60;;
65009;SDS011;51556;50.002;22.014;2022-09-23T17:01:27;24.50;;;13.80;;
65009;SDS011;51556;50.002;22.014;2022-09-23T17:04:12;23.60;;;13.60;;
65009;SDS011;51556;50.002;22.014;2022-09-23T17:09:10;19.80;;;13.20;;
65009;SDS011;51556;50.002;22.014;2022-09-23T17:11:36;20.80;;;13.00;;
65009;SDS011;51556;50.002;22.014;2022-09-23T17:14:02;20.20;;;12.70;;
65009;SDS011;51556;50.002;22.014;2022-09-23T17:16:30;19.60;;;13.10;;
65009;SDS011;51556;50.002;22.014;2022-09-23T17:18:56;25.20;;;13.30;;
65009;SDS011;51556;50.002;22.014;2022-09-23T17:21:26;26.00;;;15.10;;
65009;SDS011;51556;50.002;22.014;2022-09-23T17:23:54;28.90;;;17.00;;
65009;SDS011;51556;50.002;22.014;2022-09-23T17:26:21;27.80;;;17.00;;
65009;SDS011;51556;50.002;22.014;2022-09-23T17:28:50;33.50;;;18.40;;
65009;SDS011;51556;50.002;22.014;2022-09-23T17:31:18;27.20;;;17.80;;
65009;SDS011;51556;50.002;22.014;2022-09-23T17:33:46;30.40;;;19.00;;
65009;SDS011;51556;50.002;22.014;2022-09-23T17:36:12;35.10;;;20.00;;
65009;SDS011;51556;50.002;22.014;2022-09-23T17:38:42;38.50;;;22.20;;